Merlin, Oregon
Current Conditions -  °F | °C
As of 9:56 AM on Sunday 21 Dec 2014 (Local Time) from KSXT Reporting Station
Light Rain Light Rain  
Wind Chill: 43°   Ceiling: 400
Heat Index: 47°   Visibility: 0mi
Dew Point: 47°   Wind: 9mph
Humidity: 100%   Direction: 220°SW
Pressure: 30.17"   Gusts: NA
Location:  42.52°N, 123.42°W
Report Text: KSXT 211756Z AUTO 22008KT M1/4SM -RA FG VV004 08/08 A3017 RMK AO2 RAE05B52 SLP208 P0001 60026 T00830083 10083 20083 53026
Loading
Personal Weather Stations






























Interactive Weather Map New forecast layout! Learn more

10-Day Weather Forecast

Advertisements
Track Severe Weather on mobile